Time;durP1;ratioP1;P1;durP2;ratioP2;P2;SDS_P1;SDS_P2;PMS_P1;PMS_P2;Temp;Humidity;BMP_temperature;BMP_pressure;BME280_temperature;BME280_humidity;BME280_pressure;Samples;Min_cycle;Max_cycle;Signal;HPM_P1;HPM_P2
2023/12/12 00:00:37;;;;;;;35.03;5.10;;;;;;;7.97;100.00;100823.38;5204535;28;20108;-74
2023/12/12 00:03:07;;;;;;;22.73;5.28;;;;;;;7.81;100.00;100819.69;5206346;28;20030;-74
2023/12/12 00:05:37;;;;;;;38.88;5.15;;;;;;;7.66;100.00;100811.34;5207773;28;20488;-73
2023/12/12 00:08:08;;;;;;;29.60;5.55;;;;;;;7.55;100.00;100814.22;5206968;28;20036;-74
2023/12/12 00:10:38;;;;;;;33.92;4.50;;;;;;;7.44;100.00;100808.06;5210520;28;20029;-74
2023/12/12 00:13:09;;;;;;;37.55;5.47;;;;;;;7.35;100.00;100808.94;5205738;28;20460;-73
2023/12/12 00:15:39;;;;;;;36.35;5.18;;;;;;;7.26;100.00;100815.16;5210646;28;20025;-74
2023/12/12 00:18:10;;;;;;;28.08;5.00;;;;;;;7.21;100.00;100812.91;5209278;28;20044;-73
2023/12/12 00:20:40;;;;;;;29.60;4.95;;;;;;;7.18;100.00;100809.72;5209058;28;20552;-74
2023/12/12 00:23:11;;;;;;;47.17;5.93;;;;;;;7.13;100.00;100807.47;5207608;28;20032;-74
2023/12/12 00:25:42;;;;;;;38.58;6.50;;;;;;;7.11;100.00;100819.28;5208583;28;20033;-74
2023/12/12 00:28:12;;;;;;;41.85;5.10;;;;;;;7.12;100.00;100807.59;5203162;28;20068;-74
2023/12/12 00:30:43;;;;;;;39.08;5.00;;;;;;;7.09;100.00;100806.09;5212569;28;20033;-74
2023/12/12 00:33:13;;;;;;;31.00;5.10;;;;;;;7.09;100.00;100803.41;5203168;28;20049;-74
2023/12/12 00:35:43;;;;;;;26.23;4.50;;;;;;;7.02;100.00;100794.28;5203581;28;20087;-74
2023/12/12 00:38:14;;;;;;;19.38;3.72;;;;;;;6.93;100.00;100797.84;5204550;28;20605;-74
2023/12/12 00:40:52;;;;;;;58.28;4.68;;;;;;;6.78;100.00;100791.25;5208931;28;20108;-74
2023/12/12 00:43:24;;;;;;;37.88;4.32;;;;;;;6.68;100.00;100804.63;5206655;28;20037;-73
2023/12/12 00:45:54;;;;;;;34.60;4.28;;;;;;;6.67;100.00;100806.44;5209501;28;20025;-74
2023/12/12 00:48:24;;;;;;;18.40;4.18;;;;;;;6.62;100.00;100807.84;5205846;28;20503;-73
2023/12/12 00:50:55;;;;;;;20.35;4.40;;;;;;;6.58;100.00;100801.97;5210505;28;20100;-73
2023/12/12 00:53:25;;;;;;;17.48;4.03;;;;;;;6.55;100.00;100801.41;5209403;28;20026;-74
2023/12/12 00:55:56;;;;;;;17.83;3.88;;;;;;;6.53;100.00;100795.38;5212199;28;20051;-74
2023/12/12 00:58:26;;;;;;;27.63;5.55;;;;;;;6.51;100.00;100797.31;5206500;28;20029;-73
2023/12/12 01:00:57;;;;;;;25.85;4.65;;;;;;;6.49;100.00;100793.00;5213136;28;20035;-74
2023/12/12 01:03:27;;;;;;;20.10;4.53;;;;;;;6.46;100.00;100787.94;5211566;28;20660;-74
2023/12/12 01:05:58;;;;;;;14.48;2.92;;;;;;;6.39;100.00;100792.16;5208147;28;20044;-74
2023/12/12 01:08:28;;;;;;;17.77;3.58;;;;;;;6.31;100.00;100789.34;5207679;28;20025;-74
2023/12/12 01:10:59;;;;;;;19.88;3.80;;;;;;;6.23;100.00;100787.38;5212767;28;20396;-74
2023/12/12 01:13:29;;;;;;;12.77;3.72;;;;;;;6.22;100.00;100790.16;5209994;28;20030;-74
2023/12/12 01:16:00;;;;;;;16.88;3.20;;;;;;;6.18;100.00;100794.94;5211553;28;20021;-74
2023/12/12 01:18:31;;;;;;;24.13;4.68;;;;;;;6.20;100.00;100794.81;5209820;28;20510;-73
2023/12/12 01:21:02;;;;;;;24.48;3.33;;;;;;;6.19;100.00;100788.63;5209615;28;20037;-74
2023/12/12 01:23:46;;;;;;;29.75;5.22;;;;;;;6.18;100.00;100791.44;5208822;28;20120;-73
2023/12/12 01:26:19;;;;;;;17.55;3.10;;;;;;;6.17;100.00;100793.25;5202706;28;20030;-73
2023/12/12 01:28:50;;;;;;;44.15;4.72;;;;;;;6.19;100.00;100791.31;5214564;28;20127;-73
2023/12/12 01:31:20;;;;;;;32.08;4.90;;;;;;;6.26;100.00;100794.25;5208257;28;20104;-73
2023/12/12 01:33:51;;;;;;;21.08;4.90;;;;;;;6.34;100.00;100796.22;5208035;28;20025;-73
2023/12/12 01:36:21;;;;;;;18.65;4.20;;;;;;;6.34;100.00;100802.38;5210973;28;20017;-74
2023/12/12 01:38:52;;;;;;;25.08;4.97;;;;;;;6.34;100.00;100799.72;5208295;28;20047;-74
2023/12/12 01:41:22;;;;;;;29.77;4.88;;;;;;;6.41;100.00;100800.00;5206043;28;20029;-73
2023/12/12 01:43:53;;;;;;;30.10;5.07;;;;;;;6.41;100.00;100792.84;5209921;28;20031;-73
2023/12/12 01:46:24;;;;;;;20.67;4.50;;;;;;;6.43;100.00;100798.06;5209257;28;20403;-73
2023/12/12 01:48:54;;;;;;;12.18;3.97;;;;;;;6.38;100.00;100786.97;5213575;28;20029;-74
2023/12/12 01:51:25;;;;;;;19.23;4.60;;;;;;;6.39;100.00;100788.66;5207122;28;20018;-73
2023/12/12 01:54:00;;;;;;;29.92;5.80;;;;;;;6.45;100.00;100786.25;5212674;28;20078;-74
2023/12/12 01:56:31;;;;;;;14.02;3.97;;;;;;;6.47;100.00;100788.75;5212879;28;20029;-73
2023/12/12 01:59:04;;;;;;;23.00;5.15;;;;;;;6.50;100.00;100775.16;5208917;28;20599;-73
2023/12/12 02:01:35;;;;;;;29.45;5.38;;;;;;;6.61;100.00;100774.16;5211285;28;20404;-73
2023/12/12 02:04:06;;;;;;;17.73;5.45;;;;;;;6.76;100.00;100778.06;5203542;28;20025;-73
2023/12/12 02:06:40;;;;;;;26.85;4.90;;;;;;;6.86;100.00;100776.22;5213260;28;20480;-74
2023/12/12 02:09:11;;;;;;;27.05;4.80;;;;;;;6.86;100.00;100764.72;5210740;28;20310;-73
2023/12/12 02:11:41;;;;;;;23.73;4.50;;;;;;;6.88;100.00;100776.94;5207782;28;20036;-73
2023/12/12 02:14:12;;;;;;;25.15;4.75;;;;;;;6.93;100.00;100771.19;5209420;28;20782;-72
2023/12/12 02:16:42;;;;;;;23.10;4.85;;;;;;;6.96;100.00;100770.88;5209743;28;20025;-73
2023/12/12 02:19:13;;;;;;;27.60;4.55;;;;;;;6.97;100.00;100760.06;5210483;28;20029;-72
2023/12/12 02:21:44;;;;;;;33.63;5.90;;;;;;;7.04;100.00;100767.50;5211836;28;20437;-73
2023/12/12 02:24:14;;;;;;;32.25;6.55;;;;;;;7.03;100.00;100760.44;5202565;28;20377;-73
2023/12/12 02:26:45;;;;;;;23.77;5.57;;;;;;;7.03;100.00;100769.31;5201353;28;20017;-73
2023/12/12 02:29:16;;;;;;;19.48;4.70;;;;;;;6.97;100.00;100768.06;5200688;28;20040;-73
2023/12/12 02:31:46;;;;;;;37.33;5.22;;;;;;;7.00;100.00;100769.59;5202676;28;20026;-73
2023/12/12 02:34:16;;;;;;;21.35;4.13;;;;;;;7.04;100.00;100763.00;5205228;28;20380;-73
2023/12/12 02:36:47;;;;;;;30.35;5.75;;;;;;;7.11;100.00;100760.56;5206479;28;20028;-73
2023/12/12 02:39:17;;;;;;;29.67;7.85;;;;;;;7.18;100.00;100756.34;5201527;28;20454;-73
2023/12/12 02:41:48;;;;;;;36.65;6.22;;;;;;;7.25;100.00;100752.94;5209648;28;20021;-73
2023/12/12 02:44:18;;;;;;;33.22;6.28;;;;;;;7.37;100.00;100750.91;5209348;28;20516;-73
2023/12/12 02:46:49;;;;;;;40.22;7.20;;;;;;;7.57;100.00;100745.47;5209226;28;20025;-73
2023/12/12 02:49:20;;;;;;;47.65;8.68;;;;;;;7.70;100.00;100744.13;5208489;28;20029;-73
2023/12/12 02:51:51;;;;;;;37.55;7.63;;;;;;;7.88;100.00;100735.28;5209125;28;20033;-73
2023/12/12 02:54:21;;;;;;;41.90;6.72;;;;;;;7.96;100.00;100730.88;5201453;28;20140;-73
2023/12/12 02:56:57;;;;;;;51.22;8.30;;;;;;;8.03;100.00;100725.75;5204299;28;20025;-73
2023/12/12 02:59:28;;;;;;;34.60;7.32;;;;;;;8.12;100.00;100729.34;5203172;28;20473;-73
2023/12/12 03:01:59;;;;;;;46.80;7.65;;;;;;;8.19;100.00;100728.59;5208286;28;20021;-73
2023/12/12 03:04:29;;;;;;;36.55;6.00;;;;;;;8.26;100.00;100721.63;5202330;28;20021;-73
2023/12/12 03:07:00;;;;;;;35.95;6.53;;;;;;;8.33;100.00;100716.50;5203387;28;20028;-73
2023/12/12 03:09:31;;;;;;;37.45;6.63;;;;;;;8.40;100.00;100711.44;5201298;28;20037;-73
2023/12/12 03:12:01;;;;;;;58.15;9.30;;;;;;;8.54;100.00;100713.53;5201449;28;20377;-73
2023/12/12 03:14:34;;;;;;;43.67;8.15;;;;;;;8.65;100.00;100715.94;5204903;28;20032;-73
2023/12/12 03:17:05;;;;;;;55.58;7.72;;;;;;;8.76;100.00;100714.84;5208964;28;20507;-73
2023/12/12 03:19:36;;;;;;;52.33;6.95;;;;;;;8.81;100.00;100707.19;5203845;28;20033;-73
2023/12/12 03:22:06;;;;;;;37.65;8.10;;;;;;;8.87;100.00;100697.69;5201738;28;20021;-73
2023/12/12 03:24:37;;;;;;;54.75;8.35;;;;;;;8.92;100.00;100690.03;5203804;28;20025;-73
2023/12/12 03:27:08;;;;;;;48.58;7.10;;;;;;;8.95;100.00;100685.19;5201956;28;20031;-73
2023/12/12 03:29:39;;;;;;;40.10;6.72;;;;;;;8.96;100.00;100678.00;5201279;28;20030;-73
2023/12/12 03:32:10;;;;;;;39.75;6.20;;;;;;;8.98;100.00;100674.16;5201571;28;20025;-72
2023/12/12 03:34:40;;;;;;;55.63;7.15;;;;;;;8.99;100.00;100672.34;5203887;28;20021;-73
2023/12/12 03:37:12;;;;;;;44.88;7.00;;;;;;;8.99;100.00;100673.19;5202062;28;20093;-73
2023/12/12 03:39:42;;;;;;;41.72;6.00;;;;;;;9.02;100.00;100666.66;5201874;28;20048;-73
2023/12/12 03:42:13;;;;;;;36.00;6.10;;;;;;;9.06;100.00;100663.50;5205331;28;20056;-73
2023/12/12 03:44:44;;;;;;;41.05;6.43;;;;;;;9.14;100.00;100657.38;5204795;28;20232;-73
2023/12/12 03:47:14;;;;;;;41.10;6.13;;;;;;;9.20;100.00;100650.53;5197266;28;20022;-73
2023/12/12 03:49:45;;;;;;;51.15;7.95;;;;;;;9.24;100.00;100649.19;5204554;28;20533;-73
2023/12/12 03:52:15;;;;;;;43.88;6.25;;;;;;;9.27;100.00;100641.66;5201753;28;20025;-72
2023/12/12 03:54:46;;;;;;;47.75;7.90;;;;;;;9.28;100.00;100637.16;5202592;28;20477;-73
2023/12/12 03:57:17;;;;;;;42.97;7.45;;;;;;;9.34;100.00;100631.16;5198106;28;20036;-73
2023/12/12 03:59:47;;;;;;;47.42;6.75;;;;;;;9.41;100.00;100618.78;5197672;28;20034;-73
2023/12/12 04:02:18;;;;;;;40.30;6.10;;;;;;;9.45;100.00;100622.81;5203802;28;20187;-73
2023/12/12 04:04:48;;;;;;;42.03;6.30;;;;;;;9.47;100.00;100618.13;5197612;28;20022;-73
2023/12/12 04:07:19;;;;;;;44.83;6.43;;;;;;;9.46;100.00;100618.28;5203836;28;20548;-72
2023/12/12 04:09:49;;;;;;;43.97;6.75;;;;;;;9.43;100.00;100618.59;5207668;28;20029;-73
2023/12/12 04:12:20;;;;;;;33.10;5.82;;;;;;;9.41;100.00;100621.47;5201655;28;20532;-73
2023/12/12 04:14:50;;;;;;;39.58;6.03;;;;;;;9.45;100.00;100614.78;5200660;28;20056;-73
2023/12/12 04:17:21;;;;;;;36.13;5.63;;;;;;;9.46;100.00;100605.75;5203709;28;20017;-73
2023/12/12 04:19:51;;;;;;;46.08;6.93;;;;;;;9.42;100.00;100615.09;5208776;28;20435;-73
2023/12/12 04:22:22;;;;;;;37.17;5.35;;;;;;;9.44;100.00;100615.78;5209609;28;20029;-72
2023/12/12 04:24:52;;;;;;;45.33;6.40;;;;;;;9.43;100.00;100618.59;5205356;28;20025;-73
2023/12/12 04:27:23;;;;;;;46.40;5.40;;;;;;;9.40;100.00;100616.28;5206105;28;20079;-73
2023/12/12 04:29:53;;;;;;;51.78;6.25;;;;;;;9.46;100.00;100623.66;5207632;28;20021;-73
2023/12/12 04:32:24;;;;;;;34.55;5.70;;;;;;;9.44;100.00;100615.78;5209734;28;20534;-73
2023/12/12 04:34:55;;;;;;;54.28;7.00;;;;;;;9.52;100.00;100620.31;5209359;28;20048;-73
2023/12/12 04:37:25;;;;;;;35.38;5.75;;;;;;;9.54;100.00;100623.69;5208695;28;20040;-73
2023/12/12 04:39:56;;;;;;;40.28;5.75;;;;;;;9.60;100.00;100621.16;5206839;28;20500;-73
2023/12/12 04:42:26;;;;;;;37.20;6.32;;;;;;;9.60;100.00;100614.97;5210116;28;20393;-73
2023/12/12 04:44:57;;;;;;;39.92;6.03;;;;;;;9.63;100.00;100619.16;5210684;28;20071;-73
2023/12/12 04:47:27;;;;;;;34.72;5.15;;;;;;;9.69;100.00;100619.34;5207324;28;20503;-73
2023/12/12 04:49:58;;;;;;;35.25;5.75;;;;;;;9.67;100.00;100618.66;5211131;28;20110;-73
2023/12/12 04:52:28;;;;;;;45.63;5.10;;;;;;;9.72;100.00;100621.66;5209029;28;20028;-73
2023/12/12 04:54:59;;;;;;;40.97;7.40;;;;;;;9.79;100.00;100619.19;5207547;28;20415;-73
2023/12/12 04:57:29;;;;;;;36.40;5.53;;;;;;;9.80;100.00;100615.50;5202750;28;20385;-73
2023/12/12 05:00:00;;;;;;;41.63;5.40;;;;;;;9.78;100.00;100615.63;5205760;28;20030;-72
2023/12/12 05:02:30;;;;;;;46.35;7.40;;;;;;;9.81;100.00;100615.31;5211247;28;20025;-73
2023/12/12 05:05:01;;;;;;;35.00;4.82;;;;;;;9.82;100.00;100608.94;5206602;28;20505;-73
2023/12/12 05:07:31;;;;;;;27.35;5.15;;;;;;;9.90;100.00;100610.81;5206707;28;20075;-73
2023/12/12 05:10:02;;;;;;;43.42;5.82;;;;;;;9.89;100.00;100614.50;5207298;28;20021;-73
2023/12/12 05:12:33;;;;;;;32.65;5.95;;;;;;;9.79;100.00;100603.94;5208876;28;20033;-73
2023/12/12 05:15:04;;;;;;;27.90;5.32;;;;;;;9.78;100.00;100604.91;5204657;28;20044;-73
2023/12/12 05:17:35;;;;;;;42.70;6.65;;;;;;;9.81;100.00;100599.25;5210152;28;20033;-73
2023/12/12 05:20:09;;;;;;;34.05;6.35;;;;;;;9.83;100.00;100596.38;5203419;28;20022;-72
2023/12/12 05:22:39;;;;;;;39.55;6.18;;;;;;;9.87;100.00;100589.69;5210342;28;20082;-73
2023/12/12 05:25:11;;;;;;;41.40;6.35;;;;;;;9.89;100.00;100593.06;5205916;28;20025;-73
2023/12/12 05:27:41;;;;;;;40.03;5.32;;;;;;;9.86;100.00;100588.03;5205846;28;20024;-73
2023/12/12 05:30:12;;;;;;;35.42;6.28;;;;;;;9.83;100.00;100589.19;5207283;28;20037;-73
2023/12/12 05:32:43;;;;;;;35.70;5.28;;;;;;;9.83;100.00;100586.50;5206945;28;20318;-73
2023/12/12 05:35:13;;;;;;;38.53;5.13;;;;;;;9.76;100.00;100590.03;5223911;28;20120;-73
2023/12/12 05:37:44;;;;;;;33.33;5.53;;;;;;;9.73;100.00;100576.97;5213015;28;20029;-73
2023/12/12 05:40:15;;;;;;;30.88;4.80;;;;;;;9.76;100.00;100576.63;5200051;28;20031;-73
2023/12/12 05:42:45;;;;;;;30.65;4.57;;;;;;;9.79;100.00;100582.50;5209087;28;20029;-73
2023/12/12 05:45:17;;;;;;;40.80;5.90;;;;;;;9.74;100.00;100576.81;5203428;28;20051;-73
2023/12/12 05:47:47;;;;;;;37.30;5.82;;;;;;;9.71;100.00;100566.41;5211734;28;20028;-73
2023/12/12 05:50:18;;;;;;;33.30;5.10;;;;;;;9.75;100.00;100574.97;5207913;28;20036;-73
2023/12/12 05:52:50;;;;;;;30.60;5.70;;;;;;;9.74;100.00;100566.09;5210802;28;20053;-73
2023/12/12 05:55:21;;;;;;;36.63;5.60;;;;;;;9.75;100.00;100561.56;5206592;28;20021;-73
2023/12/12 05:57:51;;;;;;;38.88;7.97;;;;;;;9.70;100.00;100561.25;5206609;28;20029;-73
2023/12/12 06:00:22;;;;;;;27.88;4.60;;;;;;;9.70;100.00;100551.38;5203917;28;21142;-73
2023/12/12 06:02:54;;;;;;;29.70;5.38;;;;;;;9.76;100.00;100556.03;5203386;28;20021;-73
2023/12/12 06:05:24;;;;;;;36.40;6.93;;;;;;;9.76;100.00;100541.81;5207587;28;20025;-73
2023/12/12 06:07:55;;;;;;;26.80;5.07;;;;;;;9.77;100.00;100548.84;5204710;28;20096;-73
2023/12/12 06:10:25;;;;;;;27.83;5.55;;;;;;;9.75;100.00;100545.50;5206791;28;20032;-73
2023/12/12 06:12:57;;;;;;;25.17;4.63;;;;;;;9.72;100.00;100541.31;5208267;28;20066;-73
2023/12/12 06:15:28;;;;;;;32.63;5.40;;;;;;;9.71;100.00;100546.84;5205293;28;20554;-73
2023/12/12 06:17:59;;;;;;;31.20;4.95;;;;;;;9.65;100.00;100534.97;5202043;28;20053;-73
2023/12/12 06:20:32;;;;;;;30.20;5.40;;;;;;;9.66;100.00;100538.47;5207262;28;20078;-73
2023/12/12 06:23:02;;;;;;;33.88;5.65;;;;;;;9.62;100.00;100531.78;5211728;28;20032;-73
2023/12/12 06:25:33;;;;;;;25.63;4.85;;;;;;;9.58;100.00;100526.75;5208614;28;20033;-73
2023/12/12 06:28:03;;;;;;;31.38;4.63;;;;;;;9.50;100.00;100532.09;5210351;28;20047;-73
2023/12/12 06:30:34;;;;;;;29.02;6.60;;;;;;;9.45;100.00;100520.22;5202698;28;20136;-73
2023/12/12 06:33:04;;;;;;;20.33;4.55;;;;;;;9.46;100.00;100513.88;5204889;28;20033;-73
2023/12/12 06:35:35;;;;;;;33.35;5.47;;;;;;;9.42;100.00;100509.84;5206727;28;20037;-73
2023/12/12 06:38:05;;;;;;;25.30;5.25;;;;;;;9.41;100.00;100500.97;5203643;28;20542;-73
2023/12/12 06:40:36;;;;;;;26.58;5.38;;;;;;;9.34;100.00;100508.00;5219093;28;20041;-74
2023/12/12 06:43:06;;;;;;;30.63;4.95;;;;;;;9.25;100.00;100517.03;5205803;28;20052;-73
2023/12/12 06:45:37;;;;;;;24.27;4.80;;;;;;;9.15;100.00;100514.50;5207631;28;20295;-74
2023/12/12 06:48:08;;;;;;;27.48;5.10;;;;;;;9.12;100.00;100514.00;5207212;28;20424;-74
2023/12/12 06:50:38;;;;;;;39.00;5.00;;;;;;;9.05;100.00;100501.28;5204775;28;20071;-73
2023/12/12 06:53:09;;;;;;;28.48;5.40;;;;;;;9.05;100.00;100503.94;5208534;28;20472;-74
2023/12/12 06:55:40;;;;;;;20.50;4.43;;;;;;;9.05;100.00;100497.78;5207234;28;20035;-74
2023/12/12 06:58:11;;;;;;;32.00;5.32;;;;;;;9.03;100.00;100505.09;5205730;28;20013;-74
2023/12/12 07:00:42;;;;;;;28.90;5.10;;;;;;;9.05;100.00;100495.94;5205815;28;20055;-74
2023/12/12 07:03:13;;;;;;;33.60;5.43;;;;;;;9.07;100.00;100487.72;5203631;28;20025;-74
2023/12/12 07:05:43;;;;;;;30.85;4.68;;;;;;;9.08;100.00;100482.19;5205090;28;20502;-74
2023/12/12 07:08:14;;;;;;;27.83;5.68;;;;;;;9.06;100.00;100480.69;5208206;28;20025;-74
2023/12/12 07:10:45;;;;;;;23.67;5.75;;;;;;;9.16;100.00;100478.72;5210477;28;20480;-73
2023/12/12 07:13:16;;;;;;;26.63;5.40;;;;;;;9.20;100.00;100476.53;5198609;28;20104;-73
2023/12/12 07:15:46;;;;;;;45.35;8.63;;;;;;;9.23;100.00;100468.16;5206658;28;20027;-73
2023/12/12 07:18:17;;;;;;;23.48;4.57;;;;;;;9.36;100.00;100468.50;5202098;28;20377;-74
2023/12/12 07:20:48;;;;;;;31.10;5.38;;;;;;;9.39;100.00;100465.50;5205132;28;20017;-74
2023/12/12 07:23:18;;;;;;;19.90;4.38;;;;;;;9.35;100.00;100472.19;5204171;28;20083;-74
2023/12/12 07:25:49;;;;;;;35.25;5.68;;;;;;;9.33;100.00;100458.13;5205821;28;20047;-74
2023/12/12 07:28:20;;;;;;;26.35;5.93;;;;;;;9.44;100.00;100448.91;5207954;28;20033;-74
2023/12/12 07:30:53;;;;;;;13.90;4.22;;;;;;;9.53;100.00;100459.44;5205245;28;20499;-74
2023/12/12 07:33:24;;;;;;;30.73;5.32;;;;;;;9.51;100.00;100456.13;5202231;28;20031;-74
2023/12/12 07:35:54;;;;;;;24.45;5.07;;;;;;;9.40;100.00;100469.84;5205657;28;20025;-73
2023/12/12 07:38:25;;;;;;;22.52;4.88;;;;;;;9.48;100.00;100458.28;5206911;28;20021;-74
2023/12/12 07:40:55;;;;;;;27.38;5.13;;;;;;;9.45;100.00;100448.78;5202922;28;20032;-74
2023/12/12 07:43:26;;;;;;;19.50;6.45;;;;;;;9.41;100.00;100442.06;5206748;28;20033;-74
2023/12/12 07:45:57;;;;;;;22.55;5.13;;;;;;;9.37;100.00;100456.78;5205266;28;20036;-73
2023/12/12 07:48:27;;;;;;;19.40;4.30;;;;;;;9.46;100.00;100454.97;5210869;28;20027;-73
2023/12/12 07:50:58;;;;;;;20.60;5.95;;;;;;;9.47;100.00;100452.09;5205209;28;20025;-74
2023/12/12 07:53:28;;;;;;;32.35;5.07;;;;;;;9.52;100.00;100451.59;5205641;28;20060;-74
2023/12/12 07:55:59;;;;;;;24.92;5.07;;;;;;;9.54;100.00;100450.44;5203804;28;20088;-73
2023/12/12 07:58:29;;;;;;;25.52;6.03;;;;;;;9.58;100.00;100446.38;5205251;28;20025;-73
2023/12/12 08:01:00;;;;;;;25.88;12.20;;;;;;;9.64;100.00;100449.41;5208147;28;20033;-74
2023/12/12 08:03:30;;;;;;;25.23;7.45;;;;;;;9.71;100.00;100453.09;5205235;28;20036;-74
2023/12/12 08:06:01;;;;;;;18.95;4.60;;;;;;;9.76;100.00;100453.41;5205666;28;20025;-74
2023/12/12 08:08:31;;;;;;;24.17;5.45;;;;;;;9.81;100.00;100440.34;5209245;28;20094;-74
2023/12/12 08:11:02;;;;;;;27.70;5.35;;;;;;;9.86;100.00;100438.81;5207093;28;20025;-74
2023/12/12 08:13:33;;;;;;;28.50;5.50;;;;;;;9.91;100.00;100440.16;5205972;28;20038;-74
2023/12/12 08:16:04;;;;;;;16.75;5.53;;;;;;;9.98;100.00;100439.28;5205540;28;20032;-74
2023/12/12 08:18:37;;;;;;;21.50;4.85;;;;;;;10.08;100.00;100439.91;5207851;28;20037;-74
2023/12/12 08:21:09;;;;;;;21.20;4.22;;;;;;;10.19;100.00;100440.53;5205397;28;20029;-74
2023/12/12 08:23:41;;;;;;;17.98;4.57;;;;;;;10.14;100.00;100433.03;5208980;28;20033;-74
2023/12/12 08:26:12;;;;;;;16.58;4.30;;;;;;;10.30;100.00;100433.00;5205174;28;20029;-75
2023/12/12 08:28:42;;;;;;;15.98;4.07;;;;;;;10.46;100.00;100431.25;5208302;28;20373;-74
2023/12/12 08:31:13;;;;;;;18.30;4.43;;;;;;;10.56;100.00;100424.66;5208695;28;20029;-74
2023/12/12 08:33:44;;;;;;;13.20;3.63;;;;;;;10.59;100.00;100424.31;5205444;28;20432;-74
2023/12/12 08:36:14;;;;;;;17.73;3.55;;;;;;;10.69;100.00;100416.00;5207617;28;20025;-74
2023/12/12 08:38:49;;;;;;;16.60;3.58;;;;;;;10.93;100.00;100411.50;5209283;28;20477;-74
2023/12/12 08:41:20;;;;;;;11.40;3.67;;;;;;;11.22;100.00;100410.78;5202605;28;20029;-73
2023/12/12 08:43:51;;;;;;;21.85;4.50;;;;;;;11.01;100.00;100400.72;5205348;28;20036;-73
2023/12/12 08:46:26;;;;;;;14.00;3.42;;;;;;;10.91;100.00;100395.59;5205797;28;20039;-73
2023/12/12 08:48:58;;;;;;;11.90;3.75;;;;;;;10.67;100.00;100398.44;5206952;28;20385;-73
2023/12/12 08:51:30;;;;;;;16.98;3.72;;;;;;;10.64;100.00;100399.63;5205049;28;20076;-73
2023/12/12 08:54:02;;;;;;;11.68;3.88;;;;;;;10.58;100.00;100389.59;5207635;28;20059;-73
2023/12/12 08:56:33;;;;;;;14.52;3.97;;;;;;;10.81;100.00;100386.94;5208367;28;20018;-73
2023/12/12 08:59:04;;;;;;;19.38;3.55;;;;;;;10.93;100.00;100382.81;5205284;28;20037;-73
2023/12/12 09:01:34;;;;;;;14.95;3.20;;;;;;;11.00;100.00;100381.09;5203820;28;20041;-74
2023/12/12 09:04:07;;;;;;;14.90;3.60;;;;;;;10.88;100.00;100386.03;5208668;28;20029;-74
2023/12/12 09:06:37;;;;;;;13.98;3.40;;;;;;;10.65;100.00;100379.84;5211775;28;20028;-74
2023/12/12 09:09:08;;;;;;;21.65;4.50;;;;;;;10.61;100.00;100376.69;5210130;28;20401;-75
2023/12/12 09:11:39;;;;;;;18.95;4.53;;;;;;;10.52;100.00;100375.06;5211688;28;20059;-74
2023/12/12 09:14:10;;;;;;;24.00;4.40;;;;;;;10.44;100.00;100376.94;5211518;28;20048;-74
2023/12/12 09:16:40;;;;;;;14.45;4.38;;;;;;;10.53;100.00;100375.88;5213297;28;20415;-75
2023/12/12 09:19:14;;;;;;;15.75;4.40;;;;;;;10.68;100.00;100374.09;5211753;28;20028;-75
2023/12/12 09:21:45;;;;;;;15.10;3.88;;;;;;;10.60;100.00;100374.19;5211701;28;20090;-74
2023/12/12 09:24:15;;;;;;;12.68;3.70;;;;;;;10.72;100.00;100355.81;5206857;28;20444;-75
2023/12/12 09:26:46;;;;;;;16.63;4.05;;;;;;;10.78;100.00;100365.81;5207351;28;20033;-75
2023/12/12 09:29:16;;;;;;;11.77;4.03;;;;;;;10.70;100.00;100365.91;5209938;28;20140;-75
2023/12/12 09:31:49;;;;;;;12.80;3.97;;;;;;;10.77;100.00;100354.25;5211312;28;20033;-74
2023/12/12 09:34:19;;;;;;;12.93;4.15;;;;;;;10.69;100.00;100351.63;5209166;28;20022;-75
2023/12/12 09:36:50;;;;;;;15.52;4.50;;;;;;;10.69;100.00;100340.06;5214125;28;20041;-74
2023/12/12 09:39:21;;;;;;;12.98;4.32;;;;;;;10.69;100.00;100348.94;5209315;28;20121;-75
2023/12/12 09:41:53;;;;;;;9.90;3.30;;;;;;;10.71;100.00;100340.75;5209013;28;20480;-75
2023/12/12 09:44:23;;;;;;;14.80;5.03;;;;;;;10.78;100.00;100339.00;5210831;28;20045;-75
2023/12/12 09:46:54;;;;;;;13.75;4.85;;;;;;;10.84;100.00;100328.41;5211315;28;20029;-75
2023/12/12 09:49:26;;;;;;;13.98;5.13;;;;;;;10.89;100.00;100322.44;5210927;28;20037;-75
2023/12/12 09:51:58;;;;;;;16.25;7.55;;;;;;;10.94;100.00;100321.91;5206503;28;20459;-75
2023/12/12 09:54:29;;;;;;;16.80;6.95;;;;;;;11.00;100.00;100321.22;5210072;28;20584;-75
2023/12/12 09:57:00;;;;;;;12.55;5.45;;;;;;;11.04;100.00;100309.06;5211606;28;20096;-74
2023/12/12 09:59:30;;;;;;;16.65;4.80;;;;;;;11.14;100.00;100315.00;5207152;28;20037;-74
2023/12/12 10:02:03;;;;;;;9.27;4.30;;;;;;;11.14;100.00;100318.56;5211329;28;20254;-74
2023/12/12 10:04:33;;;;;;;11.88;4.00;;;;;;;11.15;100.00;100309.47;5206116;28;20608;-75
2023/12/12 10:07:07;;;;;;;16.17;4.10;;;;;;;11.26;100.00;100310.88;5207284;28;20070;-75
2023/12/12 10:09:38;;;;;;;11.25;3.20;;;;;;;11.25;100.00;100319.13;5207090;28;20021;-75
2023/12/12 10:12:08;;;;;;;10.02;3.67;;;;;;;11.39;100.00;100308.38;5205486;28;20028;-75
2023/12/12 10:14:41;;;;;;;10.57;3.40;;;;;;;11.37;100.00;100312.28;5212262;28;20488;-74
2023/12/12 10:17:11;;;;;;;11.95;3.78;;;;;;;11.57;100.00;100308.00;5206466;28;20032;-74
2023/12/12 10:19:42;;;;;;;11.57;3.83;;;;;;;11.59;100.00;100292.53;5211811;28;20017;-75
2023/12/12 10:22:12;;;;;;;11.82;3.25;;;;;;;11.79;100.00;100282.03;5210010;28;20022;-74
2023/12/12 10:24:43;;;;;;;12.07;3.30;;;;;;;11.97;100.00;100283.53;5207395;28;20035;-74
2023/12/12 10:27:20;;;;;;;6.30;2.55;;;;;;;11.99;100.00;100278.78;5204224;28;20086;-73
2023/12/12 10:29:50;;;;;;;12.45;3.55;;;;;;;12.01;100.00;100272.22;5204711;28;20030;-73
2023/12/12 10:32:22;;;;;;;8.05;2.60;;;;;;;12.04;100.00;100268.31;5204642;28;20373;-74
2023/12/12 10:34:52;;;;;;;9.05;2.80;;;;;;;12.22;100.00;100267.88;5204756;28;20079;-73
2023/12/12 10:37:23;;;;;;;5.55;2.88;;;;;;;12.31;100.00;100248.75;5204553;28;20037;-74
2023/12/12 10:39:53;;;;;;;5.63;2.65;;;;;;;12.30;100.00;100255.16;5201938;28;20090;-74
2023/12/12 10:42:24;;;;;;;8.98;3.13;;;;;;;12.18;100.00;100244.06;5218755;28;20025;-74
2023/12/12 10:44:59;;;;;;;8.68;2.50;;;;;;;12.00;100.00;100241.00;5206700;28;20092;-74
2023/12/12 10:47:30;;;;;;;4.90;2.55;;;;;;;11.96;100.00;100242.38;5205975;28;20053;-74
2023/12/12 10:50:03;;;;;;;7.38;2.15;;;;;;;11.82;100.00;100230.66;5203961;28;20063;-74
2023/12/12 10:52:33;;;;;;;5.30;2.20;;;;;;;11.71;100.00;100232.97;5215084;28;20428;-74
2023/12/12 10:55:05;;;;;;;4.68;2.53;;;;;;;11.57;100.00;100240.84;5215657;28;20025;-74
2023/12/12 10:57:38;;;;;;;5.75;2.60;;;;;;;11.53;100.00;100230.66;5209161;28;20088;-74
2023/12/12 11:00:14;;;;;;;8.57;2.78;;;;;;;11.54;100.00;100217.03;5219527;28;20028;-73
2023/12/12 11:02:45;;;;;;;9.18;2.63;;;;;;;11.56;100.00;100223.06;5207748;28;20036;-74
2023/12/12 11:05:16;;;;;;;6.55;2.47;;;;;;;11.56;100.00;100219.56;5203975;28;20038;-74
2023/12/12 11:07:47;;;;;;;7.28;2.60;;;;;;;11.63;100.00;100215.91;5203923;28;20071;-74
2023/12/12 11:10:19;;;;;;;7.95;2.70;;;;;;;11.68;100.00;100202.75;5203851;28;20029;-74
2023/12/12 11:12:58;;;;;;;6.15;2.30;;;;;;;11.59;100.00;100208.41;5212668;28;20428;-74
2023/12/12 11:15:29;;;;;;;6.57;2.40;;;;;;;11.64;100.00;100200.63;5210004;28;20017;-74
2023/12/12 11:18:00;;;;;;;7.93;2.63;;;;;;;11.81;100.00;100195.88;5205537;28;20534;-74
2023/12/12 11:20:36;;;;;;;10.15;2.95;;;;;;;11.96;100.00;100198.56;5203882;28;20044;-74
2023/12/12 11:23:07;;;;;;;4.82;2.75;;;;;;;11.97;100.00;100182.22;5209483;28;20048;-74
2023/12/12 11:25:42;;;;;;;5.88;2.97;;;;;;;12.08;100.00;100183.56;5208132;28;20032;-74
2023/12/12 11:28:13;;;;;;;8.18;2.80;;;;;;;12.20;100.00;100182.03;5203936;28;20089;-73
2023/12/12 11:30:45;;;;;;;7.40;2.55;;;;;;;12.22;100.00;100184.53;5203409;28;20113;-73
2023/12/12 11:33:15;;;;;;;7.70;2.70;;;;;;;12.32;100.00;100174.28;5206634;28;20025;-74